createdAt,value
2023-07-24T00:00:20.575Z,70.14
2023-07-24T00:01:20.632Z,74.08
2023-07-24T00:02:20.704Z,72.82
2023-07-24T00:03:20.687Z,70.95
2023-07-24T00:04:20.673Z,71.05
2023-07-24T00:05:20.705Z,70.82
2023-07-24T00:06:20.723Z,72.21
2023-07-24T00:07:20.742Z,70.64
2023-07-24T00:08:20.812Z,73.50
2023-07-24T00:09:20.798Z,72.08
2023-07-24T00:10:20.816Z,71.75
2023-07-24T00:11:20.846Z,70.58
2023-07-24T00:12:20.860Z,71.32
2023-07-24T00:13:20.889Z,71.21
2023-07-24T00:14:20.913Z,72.92
2023-07-24T00:15:20.930Z,71.50
2023-07-24T00:16:20.939Z,70.11
2023-07-24T00:17:21.133Z,74.97
2023-07-24T00:18:20.978Z,74.87
2023-07-24T00:19:21.032Z,68.24
2023-07-24T00:20:21.013Z,72.07
2023-07-24T00:21:21.038Z,72.79
2023-07-24T00:22:21.088Z,72.90
2023-07-24T00:23:21.081Z,70.65
2023-07-24T00:24:21.134Z,71.52
2023-07-24T00:25:21.110Z,70.55
2023-07-24T00:26:21.147Z,70.61
2023-07-24T00:27:21.274Z,73.39
2023-07-24T00:28:21.170Z,71.02
2023-07-24T00:29:21.216Z,70.30
2023-07-24T00:30:21.192Z,72.23
2023-07-24T00:31:21.265Z,70.31
2023-07-24T00:32:21.250Z,72.87
2023-07-24T00:33:21.265Z,76.31
2023-07-24T00:34:21.271Z,69.64
2023-07-24T00:35:21.298Z,72.50
2023-07-24T00:36:21.355Z,74.08
2023-07-24T00:37:21.344Z,72.95
2023-07-24T00:38:21.370Z,72.62
2023-07-24T00:39:21.375Z,70.57
2023-07-24T00:40:21.396Z,71.80
2023-07-24T00:41:21.426Z,74.30
2023-07-24T00:42:21.428Z,72.90
2023-07-24T00:43:21.445Z,71.06
2023-07-24T00:44:21.468Z,73.16
2023-07-24T00:45:21.478Z,69.59
2023-07-24T00:46:21.525Z,69.47
2023-07-24T00:47:21.545Z,74.87
2023-07-24T00:48:21.553Z,71.24
2023-07-24T00:49:21.595Z,70.08
2023-07-24T00:50:21.609Z,71.93
2023-07-24T00:51:21.627Z,73.05
2023-07-24T00:52:21.636Z,70.16
2023-07-24T00:53:21.675Z,73.58
2023-07-24T00:54:21.693Z,72.23
2023-07-24T00:55:21.731Z,74.73
2023-07-24T00:56:21.736Z,70.58
2023-07-24T00:57:21.772Z,73.36
2023-07-24T00:58:21.814Z,72.58
2023-07-24T00:59:21.841Z,68.89
2023-07-24T01:00:21.853Z,70.93
2023-07-24T01:01:21.882Z,70.63
2023-07-24T01:02:21.964Z,72.47
2023-07-24T01:03:21.952Z,72.35
2023-07-24T01:04:21.959Z,72.83
2023-07-24T01:05:21.984Z,71.44
2023-07-24T01:07:41.511Z,25.00
2023-07-24T01:08:41.503Z,25.00
2023-07-24T01:09:41.257Z,25.00
2023-07-24T01:10:41.187Z,25.00
2023-07-24T01:11:41.213Z,25.00
2023-07-24T01:12:41.246Z,26.84
2023-07-24T01:13:41.284Z,26.78
2023-07-24T01:14:41.285Z,25.00
2023-07-24T01:15:41.316Z,24.76
2023-07-24T01:16:41.377Z,31.23
2023-07-24T01:17:41.406Z,25.00
2023-07-24T01:18:41.418Z,27.87
2023-07-24T01:19:41.402Z,27.68
2023-07-24T01:20:41.436Z,27.87
2023-07-24T01:21:41.474Z,29.89
2023-07-24T01:22:41.479Z,30.51
2023-07-24T01:23:41.500Z,26.99
2023-07-24T01:24:41.559Z,28.43
2023-07-24T01:25:41.547Z,29.89
2023-07-24T01:26:41.574Z,26.39
2023-07-24T01:27:41.606Z,27.27
2023-07-24T01:28:41.659Z,27.72
2023-07-24T01:29:41.654Z,27.97
2023-07-24T01:30:41.716Z,27.75
2023-07-24T01:31:41.730Z,29.71
2023-07-24T01:32:41.781Z,31.17
2023-07-24T01:33:41.772Z,31.80
2023-07-24T01:34:41.791Z,31.44
2023-07-24T01:35:41.821Z,27.71
2023-07-24T01:36:41.855Z,28.02
2023-07-24T01:37:41.897Z,30.96
2023-07-24T01:38:41.923Z,30.55
2023-07-24T01:39:41.948Z,28.96
2023-07-24T01:40:41.979Z,27.38
2023-07-24T01:41:42.010Z,28.99
2023-07-24T01:42:42.061Z,28.04
2023-07-24T01:43:42.074Z,28.73
2023-07-24T01:44:42.086Z,28.70
2023-07-24T01:45:42.151Z,27.71
2023-07-24T01:46:42.268Z,27.63
2023-07-24T01:47:42.300Z,26.88
2023-07-24T01:48:42.198Z,29.21
2023-07-24T01:49:42.228Z,28.67
2023-07-24T01:50:42.232Z,27.61
2023-07-24T01:51:42.262Z,29.71
2023-07-24T01:52:42.280Z,29.36
2023-07-24T01:53:42.307Z,31.78
2023-07-24T01:54:42.327Z,28.37
2023-07-24T01:55:42.365Z,31.22
2023-07-24T01:56:42.373Z,30.26
2023-07-24T01:57:42.396Z,32.40
2023-07-24T01:58:42.432Z,30.70
2023-07-24T01:59:42.450Z,29.35
2023-07-24T02:00:42.505Z,31.38
2023-07-24T02:01:42.578Z,29.99
2023-07-24T02:02:42.622Z,31.39
2023-07-24T02:03:42.590Z,27.65
2023-07-24T02:04:42.603Z,32.12
2023-07-24T02:05:42.629Z,29.10
2023-07-24T02:06:42.650Z,32.33
2023-07-24T02:07:42.671Z,29.69
2023-07-24T02:08:42.708Z,26.36
2023-07-24T02:09:42.735Z,30.50
2023-07-24T02:10:42.740Z,28.05
2023-07-24T02:11:42.773Z,28.98
2023-07-24T02:12:42.796Z,28.34
2023-07-24T02:13:42.829Z,26.80
2023-07-24T02:14:42.845Z,30.42
2023-07-24T02:15:42.864Z,28.81
2023-07-24T02:16:42.987Z,27.68
2023-07-24T02:17:42.926Z,30.23
2023-07-24T02:18:42.932Z,31.61
2023-07-24T02:19:42.971Z,26.97
2023-07-24T02:20:42.991Z,28.92
2023-07-24T02:21:43.009Z,30.65
2023-07-24T02:22:43.041Z,30.83
2023-07-24T02:23:43.057Z,29.49
2023-07-24T02:24:43.100Z,28.61
2023-07-24T02:25:43.114Z,30.17
2023-07-24T02:26:43.128Z,27.39
2023-07-24T02:27:43.150Z,30.54
2023-07-24T02:28:43.167Z,28.72
2023-07-24T02:29:43.205Z,25.33
2023-07-24T02:30:43.207Z,25.36
2023-07-24T02:31:43.250Z,27.35
2023-07-24T02:32:43.327Z,30.17
2023-07-24T02:33:43.296Z,30.89
2023-07-24T02:34:43.308Z,30.41
2023-07-24T02:35:43.332Z,32.59
2023-07-24T02:36:43.355Z,32.54
2023-07-24T02:37:43.377Z,27.46
2023-07-24T02:38:43.390Z,30.37
2023-07-24T02:39:43.419Z,33.21
2023-07-24T02:40:43.475Z,29.07
2023-07-24T02:41:43.482Z,29.13
2023-07-24T02:42:43.506Z,33.63
2023-07-24T02:43:43.533Z,32.18
2023-07-24T02:44:43.556Z,30.10
2023-07-24T02:45:43.578Z,26.99
2023-07-24T02:46:43.603Z,30.57
2023-07-24T02:47:43.718Z,26.46
2023-07-24T02:48:43.670Z,28.76
2023-07-24T02:49:43.733Z,28.63
2023-07-24T02:50:43.715Z,28.44
2023-07-24T02:51:43.754Z,28.68
2023-07-24T02:52:43.777Z,30.80
2023-07-24T02:53:43.827Z,30.30
2023-07-24T02:54:43.867Z,29.18
2023-07-24T02:55:43.867Z,27.18
2023-07-24T02:56:43.895Z,29.33
2023-07-24T02:57:43.929Z,28.80
2023-07-24T02:58:43.970Z,25.93
2023-07-24T02:59:43.985Z,28.90
2023-07-24T03:00:44.007Z,29.96
2023-07-24T03:01:44.036Z,28.70
2023-07-24T03:02:44.189Z,30.19
2023-07-24T03:03:44.112Z,28.33
2023-07-24T03:04:44.122Z,31.19
2023-07-24T03:05:44.164Z,30.56
2023-07-24T03:06:44.181Z,28.41
2023-07-24T03:07:44.208Z,28.41
2023-07-24T03:08:44.264Z,29.12
2023-07-24T03:09:44.301Z,29.91
2023-07-24T03:10:44.303Z,33.56
2023-07-24T03:11:44.353Z,30.14
2023-07-24T03:12:44.370Z,29.31
2023-07-24T03:13:44.427Z,31.06
2023-07-24T03:14:44.454Z,31.81
2023-07-24T03:15:44.557Z,32.62
2023-07-24T03:16:44.515Z,27.31
2023-07-24T03:17:44.569Z,30.95
2023-07-24T03:18:44.570Z,33.27
2023-07-24T03:19:44.599Z,33.34
2023-07-24T03:20:44.645Z,33.12
2023-07-24T03:21:44.665Z,32.00
2023-07-24T03:22:44.700Z,32.12
2023-07-24T03:23:44.729Z,29.64
2023-07-24T03:24:44.788Z,29.55
2023-07-24T03:25:44.797Z,33.68
2023-07-24T03:26:44.842Z,26.86
2023-07-24T03:27:44.869Z,29.30
2023-07-24T03:28:44.894Z,29.90
2023-07-24T03:29:44.929Z,29.33
2023-07-24T03:30:45.034Z,29.23
2023-07-24T03:31:45.030Z,28.09
2023-07-24T03:32:45.052Z,30.38
2023-07-24T03:33:45.084Z,30.91
2023-07-24T03:34:45.084Z,28.13
2023-07-24T03:35:45.120Z,30.01
2023-07-24T03:36:45.149Z,27.17
2023-07-24T03:37:45.210Z,26.70
2023-07-24T03:38:45.227Z,29.97
2023-07-24T03:39:45.269Z,28.75
2023-07-24T03:40:45.285Z,29.63
2023-07-24T03:41:45.310Z,30.86
2023-07-24T03:42:45.338Z,28.38
2023-07-24T03:43:45.367Z,28.50
2023-07-24T03:44:45.399Z,28.73
2023-07-24T03:45:45.433Z,28.69
2023-07-24T03:46:45.478Z,30.36
2023-07-24T03:47:45.535Z,26.83
2023-07-24T03:48:45.555Z,26.88
2023-07-24T03:49:45.561Z,25.00
2023-07-24T03:50:45.597Z,28.50
2023-07-24T03:51:45.626Z,33.10
2023-07-24T03:52:45.671Z,28.66
2023-07-24T03:53:45.705Z,32.13
2023-07-24T03:54:45.746Z,30.31
2023-07-24T03:55:45.827Z,25.66
2023-07-24T03:56:45.806Z,30.79
2023-07-24T03:57:45.836Z,27.18
2023-07-24T03:58:45.878Z,30.98
2023-07-24T03:59:45.914Z,25.00
2023-07-24T04:00:45.965Z,28.88
2023-07-24T04:01:45.977Z,32.11
2023-07-24T04:02:46.040Z,27.34
2023-07-24T04:03:46.098Z,29.98
2023-07-24T04:04:46.082Z,29.76
2023-07-24T04:05:46.112Z,30.70
2023-07-24T04:06:46.138Z,28.37
2023-07-24T04:07:46.193Z,32.07
2023-07-24T04:08:46.225Z,27.26
2023-07-24T04:09:46.264Z,30.96
2023-07-24T04:10:46.281Z,28.05
2023-07-24T04:11:46.315Z,30.43
2023-07-24T04:12:46.359Z,28.34
2023-07-24T04:13:46.380Z,26.19
2023-07-24T04:14:46.444Z,26.37
2023-07-24T04:15:46.457Z,26.80
2023-07-24T04:16:46.492Z,30.39
2023-07-24T04:17:46.544Z,26.85
2023-07-24T04:18:46.549Z,25.76
2023-07-24T04:19:46.597Z,28.74
2023-07-24T04:20:46.625Z,28.72
2023-07-24T04:21:46.663Z,26.59
2023-07-24T04:22:46.674Z,27.63
2023-07-24T04:23:46.708Z,26.78
2023-07-24T04:24:46.782Z,27.70
2023-07-24T04:25:46.771Z,25.91
2023-07-24T04:26:46.811Z,29.75
2023-07-24T04:27:46.829Z,29.74
2023-07-24T04:28:46.851Z,30.54
2023-07-24T04:29:46.885Z,28.43
2023-07-24T04:30:46.936Z,28.98
2023-07-24T04:31:46.940Z,28.85
2023-07-24T04:32:47.003Z,28.67
2023-07-24T04:33:46.996Z,26.85
2023-07-24T04:34:47.028Z,27.36
2023-07-24T04:35:47.053Z,26.04
2023-07-24T04:36:47.086Z,28.64
2023-07-24T04:37:47.177Z,27.28
2023-07-24T04:38:47.159Z,29.34
2023-07-24T04:39:47.236Z,27.40
2023-07-24T04:40:47.217Z,25.00
2023-07-24T04:41:47.269Z,25.40
2023-07-24T04:42:47.285Z,25.00
2023-07-24T04:43:47.307Z,28.87
2023-07-24T04:44:47.353Z,29.66
2023-07-24T04:45:47.386Z,26.62
2023-07-24T04:46:47.458Z,32.78
2023-07-24T04:47:47.501Z,26.82
2023-07-24T04:48:47.474Z,30.41
2023-07-24T04:49:47.500Z,30.37
2023-07-24T04:50:47.537Z,27.56
2023-07-24T04:51:47.557Z,27.78
2023-07-24T04:52:47.598Z,25.78
2023-07-24T04:53:47.641Z,30.04
2023-07-24T04:54:47.670Z,27.71
2023-07-24T04:55:47.711Z,31.02
2023-07-24T04:56:47.733Z,30.10
2023-07-24T04:57:47.759Z,27.10
2023-07-24T04:58:47.819Z,28.68
2023-07-24T04:59:47.827Z,27.09
2023-07-24T05:00:47.890Z,28.92
2023-07-24T05:01:48.088Z,30.68
2023-07-24T05:02:47.963Z,29.19
2023-07-24T05:03:47.939Z,28.11
2023-07-24T05:04:48.014Z,29.20
2023-07-24T05:05:48.284Z,27.18
2023-07-24T05:06:48.121Z,28.18
2023-07-24T05:07:48.061Z,31.39
2023-07-24T05:08:48.093Z,30.01
2023-07-24T05:09:48.108Z,30.60
2023-07-24T05:10:48.169Z,32.05
2023-07-24T05:11:48.181Z,31.54
2023-07-24T05:12:48.214Z,29.40
2023-07-24T05:13:48.237Z,34.72
2023-07-24T05:14:48.271Z,31.88
2023-07-24T05:15:48.322Z,32.80
2023-07-24T05:16:48.371Z,33.53
2023-07-24T05:17:48.414Z,30.22
2023-07-24T05:18:48.389Z,30.86
2023-07-24T05:19:48.411Z,32.86
2023-07-24T05:20:48.470Z,33.63
2023-07-24T05:21:48.472Z,32.34
2023-07-24T05:22:48.509Z,32.96
2023-07-24T05:23:48.552Z,30.67
2023-07-24T05:24:48.606Z,32.47
2023-07-24T05:25:48.610Z,33.89
2023-07-24T05:26:48.636Z,34.07
2023-07-24T05:27:48.665Z,34.57
2023-07-24T05:28:48.684Z,31.14
2023-07-24T05:29:48.717Z,37.13
2023-07-24T05:30:48.748Z,31.21
2023-07-24T05:31:48.859Z,33.99
2023-07-24T05:32:48.874Z,34.03
2023-07-24T05:33:48.828Z,33.03
2023-07-24T05:34:48.853Z,32.37
2023-07-24T05:35:48.916Z,35.18
2023-07-24T05:36:48.931Z,32.00
2023-07-24T05:37:48.937Z,35.00
2023-07-24T05:38:48.987Z,32.26
2023-07-24T05:39:49.002Z,31.37
2023-07-24T05:40:49.045Z,32.49
2023-07-24T05:41:49.080Z,31.16
2023-07-24T05:42:49.088Z,31.07
2023-07-24T05:43:49.118Z,32.61
2023-07-24T05:44:49.150Z,32.83
2023-07-24T05:45:49.255Z,33.93
2023-07-24T05:46:49.214Z,33.58
2023-07-24T05:47:49.280Z,34.42
2023-07-24T05:48:49.269Z,32.44
2023-07-24T05:49:49.305Z,33.20
2023-07-24T05:50:49.349Z,34.01
2023-07-24T05:51:49.377Z,36.56
2023-07-24T05:52:49.408Z,32.54
2023-07-24T05:53:49.443Z,32.51
2023-07-24T05:54:49.476Z,35.52
2023-07-24T05:55:49.508Z,32.67
2023-07-24T05:56:49.536Z,31.85
2023-07-24T05:57:49.580Z,35.03
2023-07-24T05:58:49.599Z,39.15
2023-07-24T05:59:49.621Z,32.50
2023-07-24T06:00:49.658Z,34.03
2023-07-24T06:01:49.735Z,33.77
2023-07-24T06:02:49.774Z,35.40
2023-07-24T06:03:49.757Z,33.63
2023-07-24T06:04:49.770Z,33.85
2023-07-24T06:05:49.784Z,34.64
2023-07-24T06:06:49.802Z,33.28
2023-07-24T06:07:49.869Z,34.09
2023-07-24T06:08:49.847Z,32.45
2023-07-24T06:09:49.877Z,31.98
2023-07-24T06:10:49.921Z,33.89
2023-07-24T06:11:49.947Z,35.27
2023-07-24T06:12:49.943Z,34.38
2023-07-24T06:13:49.982Z,33.37
2023-07-24T06:14:49.992Z,32.20
2023-07-24T06:15:50.161Z,33.16
2023-07-24T06:16:50.118Z,34.85
2023-07-24T06:17:52.551Z,31.32
2023-07-24T06:18:50.039Z,31.62
2023-07-24T06:19:50.039Z,32.06
2023-07-24T06:20:50.038Z,33.30
2023-07-24T06:21:50.019Z,30.63
2023-07-24T06:22:50.009Z,32.35
2023-07-24T06:23:49.999Z,30.70
2023-07-24T06:24:50.114Z,32.85
2023-07-24T06:25:50.049Z,30.03
2023-07-24T06:26:49.980Z,33.80
2023-07-24T06:27:49.971Z,27.02
2023-07-24T06:28:49.996Z,29.61
2023-07-24T06:29:53.295Z,28.71
2023-07-24T06:30:50.955Z,29.20
2023-07-24T06:31:49.979Z,29.64
2023-07-24T06:32:49.953Z,29.20
2023-07-24T06:33:49.966Z,29.21
2023-07-24T06:34:49.951Z,29.58
2023-07-24T06:35:49.915Z,30.64
2023-07-24T06:36:49.915Z,32.19
2023-07-24T06:37:49.897Z,32.37
2023-07-24T06:38:49.886Z,29.16
2023-07-24T06:39:49.932Z,26.82
2023-07-24T06:40:49.899Z,28.25
2023-07-24T06:41:49.945Z,28.94
2023-07-24T06:42:49.861Z,30.75
2023-07-24T06:43:49.892Z,26.92
2023-07-24T06:44:49.845Z,32.37
2023-07-24T06:45:49.854Z,26.85
2023-07-24T06:46:50.148Z,26.51
2023-07-24T06:47:50.005Z,30.50
2023-07-24T06:48:49.814Z,33.37
2023-07-24T06:49:49.833Z,31.34
2023-07-24T06:50:49.919Z,34.59
2023-07-24T06:51:49.805Z,34.32
2023-07-24T06:52:49.792Z,33.93
2023-07-24T06:53:49.789Z,32.92
2023-07-24T06:54:49.809Z,35.61
2023-07-24T06:55:49.821Z,36.09
2023-07-24T06:56:49.881Z,29.72
2023-07-24T06:57:49.906Z,36.34
2023-07-24T06:58:49.912Z,34.90
2023-07-24T06:59:49.922Z,36.50
2023-07-24T07:00:49.955Z,33.66
2023-07-24T07:01:49.987Z,38.20
2023-07-24T07:02:50.035Z,37.64
2023-07-24T07:03:50.080Z,37.74
2023-07-24T07:04:50.061Z,39.08
2023-07-24T07:05:50.090Z,41.12
2023-07-24T07:06:50.327Z,43.36
2023-07-24T07:07:50.137Z,40.08
2023-07-24T07:08:50.171Z,36.92
2023-07-24T07:09:50.203Z,40.88
2023-07-24T07:10:50.231Z,38.73
2023-07-24T07:11:50.258Z,42.48
2023-07-24T07:12:50.282Z,44.05
2023-07-24T07:13:50.313Z,40.05
2023-07-24T07:14:50.343Z,39.66
2023-07-24T07:15:50.404Z,41.12
2023-07-24T07:16:50.423Z,43.81
2023-07-24T07:17:50.485Z,41.07
2023-07-24T07:18:50.475Z,40.88
2023-07-24T07:19:50.508Z,44.69
2023-07-24T07:20:50.557Z,39.89
2023-07-24T07:21:50.573Z,40.25
2023-07-24T07:22:50.591Z,41.79
2023-07-24T07:23:50.623Z,40.89
2023-07-24T07:24:50.713Z,41.00
2023-07-24T07:25:50.699Z,39.20
2023-07-24T07:26:50.736Z,45.60
2023-07-24T07:27:50.762Z,39.09
2023-07-24T07:28:50.801Z,43.38
2023-07-24T07:29:50.817Z,41.50
2023-07-24T07:30:50.858Z,41.27
2023-07-24T07:31:50.891Z,41.54
2023-07-24T07:32:50.938Z,41.40
2023-07-24T07:33:50.938Z,42.47
2023-07-24T07:34:50.963Z,40.38
2023-07-24T07:35:51.073Z,39.90
2023-07-24T07:36:51.021Z,41.51
2023-07-24T07:37:51.036Z,45.20
2023-07-24T07:38:51.071Z,44.08
2023-07-24T07:39:51.103Z,42.52
2023-07-24T07:40:51.131Z,41.72
2023-07-24T07:41:56.077Z,39.26
2023-07-24T07:42:52.156Z,39.71
2023-07-24T07:43:51.148Z,40.10
2023-07-24T07:44:51.154Z,39.93
2023-07-24T07:45:51.131Z,40.59
2023-07-24T07:46:51.136Z,39.60
2023-07-24T07:47:51.131Z,42.07
2023-07-24T07:48:51.125Z,42.65
2023-07-24T07:49:51.132Z,40.37
2023-07-24T07:50:51.100Z,38.63
2023-07-24T07:51:51.108Z,40.11
2023-07-24T07:52:51.092Z,37.64
2023-07-24T07:53:51.085Z,37.25
2023-07-24T07:54:51.076Z,37.88
2023-07-24T07:55:51.078Z,36.56
2023-07-24T07:56:51.063Z,35.38
2023-07-24T07:57:51.067Z,35.04
2023-07-24T07:58:51.041Z,35.50
2023-07-24T07:59:51.055Z,34.44
2023-07-24T08:00:51.108Z,30.24
2023-07-24T08:01:51.079Z,35.79
2023-07-24T08:02:51.110Z,28.20
2023-07-24T08:03:51.137Z,32.18
2023-07-24T08:04:51.113Z,31.01
2023-07-24T08:05:51.149Z,33.88
2023-07-24T08:06:51.168Z,32.32
2023-07-24T08:07:51.180Z,31.97
2023-07-24T08:08:51.209Z,33.63
2023-07-24T08:09:51.223Z,31.97
2023-07-24T08:10:51.224Z,32.19
2023-07-24T08:11:51.230Z,30.57
2023-07-24T08:12:51.256Z,29.07
2023-07-24T08:13:51.266Z,31.33
2023-07-24T08:14:51.293Z,31.41
2023-07-24T08:15:51.307Z,28.36
2023-07-24T08:16:51.387Z,28.86
2023-07-24T08:17:51.496Z,26.97
2023-07-24T08:18:51.346Z,30.45
2023-07-24T08:19:51.357Z,27.19
2023-07-24T08:20:51.366Z,29.60
2023-07-24T08:21:51.370Z,27.79
2023-07-24T08:22:51.393Z,25.00
2023-07-24T08:23:51.417Z,27.35
2023-07-24T08:24:51.526Z,31.18
2023-07-24T08:25:51.444Z,30.01
2023-07-24T08:26:51.444Z,27.76
2023-07-24T08:28:04.551Z,28.80
2023-07-24T08:28:52.472Z,29.12
2023-07-24T08:29:51.447Z,29.00
2023-07-24T08:30:51.550Z,29.90
2023-07-24T08:31:51.505Z,26.05
2023-07-24T08:32:51.489Z,27.33
2023-07-24T08:33:51.436Z,27.30
2023-07-24T08:34:51.413Z,26.19
2023-07-24T08:35:51.404Z,25.29
2023-07-24T08:36:51.395Z,26.49
2023-07-24T08:37:51.406Z,28.08
2023-07-24T08:38:51.401Z,26.37
2023-07-24T08:39:51.379Z,28.17
2023-07-24T08:40:51.438Z,28.33
2023-07-24T08:41:51.393Z,27.62
2023-07-24T08:42:51.419Z,27.37
2023-07-24T08:43:51.372Z,27.78
2023-07-24T08:44:51.345Z,27.29
2023-07-24T08:45:51.377Z,31.22
2023-07-24T08:46:51.339Z,25.73
2023-07-24T08:47:51.421Z,28.42
2023-07-24T08:48:51.321Z,25.48
2023-07-24T08:49:51.300Z,28.65
2023-07-24T08:50:51.288Z,28.26
2023-07-24T08:51:51.285Z,27.73
2023-07-24T08:52:51.278Z,29.73
2023-07-24T08:53:51.299Z,29.66
2023-07-24T08:54:51.289Z,28.68
2023-07-24T08:55:51.266Z,28.56
2023-07-24T08:56:51.270Z,29.80
2023-07-24T08:57:51.274Z,30.81
2023-07-24T08:58:51.257Z,28.31
2023-07-24T08:59:51.242Z,29.70
2023-07-24T09:00:51.242Z,26.27
2023-07-24T09:01:51.307Z,26.89
2023-07-24T09:02:51.269Z,29.27
2023-07-24T09:03:53.229Z,29.95
2023-07-24T09:04:51.205Z,28.39
2023-07-24T09:05:51.213Z,29.26
2023-07-24T09:06:51.199Z,27.66
2023-07-24T09:07:51.190Z,30.94
2023-07-24T09:08:51.180Z,28.37
2023-07-24T09:09:51.190Z,27.64
2023-07-24T09:10:51.219Z,31.15
2023-07-24T09:11:51.184Z,32.94
2023-07-24T09:12:51.165Z,28.09
2023-07-24T09:14:51.163Z,36.55
2023-07-24T09:15:51.160Z,29.59
2023-07-24T09:16:51.181Z,29.88
2023-07-24T09:17:51.154Z,30.24
2023-07-24T09:18:59.786Z,32.48
2023-07-24T09:19:52.114Z,32.95
2023-07-24T09:20:51.714Z,32.88
2023-07-24T09:21:51.100Z,32.98
2023-07-24T09:23:10.142Z,32.37
2023-07-24T09:23:52.105Z,32.68
2023-07-24T09:24:51.181Z,32.56
2023-07-24T09:25:51.075Z,31.50
2023-07-24T09:26:51.082Z,29.38
2023-07-24T09:27:51.072Z,30.59
2023-07-24T09:28:52.346Z,29.81
2023-07-24T09:29:51.045Z,33.09
2023-07-24T09:30:51.127Z,32.79
2023-07-24T09:31:51.048Z,32.99
2023-07-24T09:32:51.032Z,31.50
2023-07-24T09:33:51.018Z,32.03
2023-07-24T09:34:51.020Z,33.38
2023-07-24T09:35:51.009Z,33.13
2023-07-24T09:36:50.995Z,34.91
2023-07-24T09:37:50.996Z,34.87
2023-07-24T09:38:51.020Z,34.82
2023-07-24T09:39:50.989Z,33.95
2023-07-24T09:40:50.978Z,33.82
2023-07-24T09:41:50.966Z,36.68
2023-07-24T09:43:17.905Z,32.05
2023-07-24T09:43:51.968Z,32.64
2023-07-24T09:44:50.949Z,33.34
2023-07-24T09:45:50.939Z,34.53
2023-07-24T09:47:56.270Z,32.46
2023-07-24T09:49:51.912Z,32.99
2023-07-24T09:50:50.940Z,34.94
2023-07-24T09:51:50.905Z,34.83
2023-07-24T09:52:50.882Z,35.61
2023-07-24T09:53:50.877Z,39.25
2023-07-24T09:54:50.875Z,37.42
2023-07-24T09:55:50.882Z,36.95
2023-07-24T09:56:57.588Z,35.45
2023-07-24T09:57:51.857Z,35.94
2023-07-24T09:58:50.890Z,36.16
2023-07-24T09:59:50.838Z,36.23
2023-07-24T10:00:50.846Z,37.93
2023-07-24T10:01:50.927Z,33.66
2023-07-24T10:02:50.852Z,37.63
2023-07-24T10:03:50.819Z,37.12
2023-07-24T10:04:50.860Z,35.26
2023-07-24T10:05:50.795Z,38.98
2023-07-24T10:06:50.787Z,35.30
2023-07-24T10:07:50.799Z,35.37
2023-07-24T10:08:50.806Z,35.16
2023-07-24T10:09:50.797Z,34.92
2023-07-24T10:10:50.758Z,33.61
2023-07-24T10:11:50.753Z,36.28
2023-07-24T10:12:50.738Z,34.71
2023-07-24T10:13:50.733Z,38.39
2023-07-24T10:14:50.729Z,37.77
2023-07-24T10:15:50.781Z,37.31
2023-07-24T10:16:50.787Z,36.77
2023-07-24T10:17:50.826Z,37.99
2023-07-24T10:18:50.839Z,37.01
2023-07-24T10:19:50.827Z,36.39
2023-07-24T10:20:50.847Z,37.34
2023-07-24T10:21:50.861Z,36.28
2023-07-24T10:22:50.866Z,35.58
2023-07-24T10:23:50.875Z,39.24
2023-07-24T10:24:50.916Z,39.45
2023-07-24T10:25:50.900Z,38.97
2023-07-24T10:26:50.907Z,39.15
2023-07-24T10:27:50.928Z,38.00
2023-07-24T10:28:50.920Z,35.20
2023-07-24T10:29:50.905Z,37.38
2023-07-24T10:30:50.983Z,36.54
2023-07-24T10:31:51.106Z,38.40
2023-07-24T10:32:54.192Z,41.85
2023-07-24T10:33:50.982Z,42.05
2023-07-24T10:34:50.956Z,42.11
2023-07-24T10:35:50.910Z,41.91
2023-07-24T10:36:50.936Z,41.82
2023-07-24T10:37:50.905Z,39.86
2023-07-24T10:38:50.899Z,37.84
2023-07-24T10:39:50.899Z,38.64
2023-07-24T10:40:50.903Z,39.45
2023-07-24T10:41:50.885Z,39.48
2023-07-24T10:42:50.870Z,36.45
2023-07-24T10:43:50.885Z,38.16
2023-07-24T10:44:50.871Z,39.13
2023-07-24T10:45:50.898Z,35.29
2023-07-24T10:46:50.844Z,40.58
2023-07-24T10:47:50.861Z,33.97
2023-07-24T10:48:50.861Z,40.66
2023-07-24T10:49:50.831Z,36.52
2023-07-24T10:50:54.019Z,39.69
2023-07-24T10:51:50.815Z,39.73
2023-07-24T10:52:50.835Z,34.58
2023-07-24T10:53:50.821Z,38.27
2023-07-24T10:54:50.810Z,35.88
2023-07-24T10:55:50.788Z,36.70
2023-07-24T10:56:52.141Z,35.37
2023-07-24T10:57:50.794Z,37.88
2023-07-24T10:58:50.810Z,35.71
2023-07-24T10:59:50.761Z,36.85
2023-07-24T11:00:50.766Z,36.18
2023-07-24T11:01:50.815Z,34.36
2023-07-24T11:02:50.788Z,34.34
2023-07-24T11:03:50.727Z,33.01
2023-07-24T11:04:50.759Z,31.99
2023-07-24T11:05:50.734Z,34.63
2023-07-24T11:06:50.720Z,32.75
2023-07-24T11:07:50.735Z,36.04
2023-07-24T11:08:50.707Z,33.59
2023-07-24T11:09:50.760Z,33.44
2023-07-24T11:10:50.683Z,32.90
2023-07-24T11:11:50.680Z,34.65
2023-07-24T11:12:50.746Z,34.47
2023-07-24T11:13:50.816Z,35.81
2023-07-24T11:14:50.887Z,33.32
2023-07-24T11:15:50.986Z,34.68
2023-07-24T11:16:50.987Z,36.39
2023-07-24T11:17:51.150Z,35.40
2023-07-24T11:18:54.461Z,35.77
2023-07-24T11:19:51.129Z,40.44
2023-07-24T11:20:51.131Z,34.26
2023-07-24T11:21:51.106Z,38.50
2023-07-24T11:22:51.097Z,34.89
2023-07-24T11:23:51.092Z,36.14
2023-07-24T11:24:51.121Z,35.31
2023-07-24T11:25:51.073Z,32.53
2023-07-24T11:26:51.066Z,28.51
2023-07-24T11:27:51.062Z,36.75
2023-07-24T11:28:51.047Z,36.34
2023-07-24T11:29:51.067Z,34.03
2023-07-24T11:30:51.097Z,34.99
2023-07-24T11:31:51.064Z,33.52
2023-07-24T11:32:51.053Z,33.76
2023-07-24T11:33:51.046Z,35.31
2023-07-24T11:34:51.009Z,33.19
2023-07-24T11:35:51.025Z,36.34
2023-07-24T11:36:50.996Z,33.91
2023-07-24T11:37:50.999Z,40.05
2023-07-24T11:38:50.976Z,35.10
2023-07-24T11:39:50.988Z,37.67
2023-07-24T11:40:50.982Z,38.69
2023-07-24T11:41:50.969Z,39.61
2023-07-24T11:42:50.971Z,41.01
2023-07-24T11:43:51.012Z,36.20
2023-07-24T11:44:50.982Z,37.15
2023-07-24T11:45:51.036Z,37.80
2023-07-24T11:46:51.184Z,36.75
2023-07-24T11:47:51.203Z,37.94
2023-07-24T11:48:51.248Z,40.06
2023-07-24T11:49:51.272Z,38.02
2023-07-24T11:50:51.363Z,39.01
2023-07-24T11:51:51.409Z,41.13
2023-07-24T11:52:51.466Z,36.86
2023-07-24T11:53:51.516Z,39.10
2023-07-24T11:54:51.564Z,37.68
2023-07-24T11:55:51.639Z,37.51
2023-07-24T11:56:51.682Z,39.88
2023-07-24T11:57:51.737Z,35.81
2023-07-24T11:58:51.809Z,36.61
2023-07-24T11:59:51.875Z,37.20
2023-07-24T12:00:51.957Z,38.73
2023-07-24T12:01:51.986Z,34.66
2023-07-24T12:02:52.248Z,38.20
2023-07-24T12:03:52.173Z,35.24
2023-07-24T12:04:52.154Z,32.90
2023-07-24T12:05:52.243Z,36.27
2023-07-24T12:06:52.280Z,33.42
2023-07-24T12:07:52.348Z,36.70
2023-07-24T12:08:52.400Z,33.75
2023-07-24T12:09:52.474Z,34.63
2023-07-24T12:10:52.573Z,35.81
2023-07-24T12:11:52.582Z,36.11
2023-07-24T12:12:52.648Z,33.26
2023-07-24T12:13:52.724Z,35.05
2023-07-24T12:14:53.086Z,32.14
2023-07-24T12:15:52.881Z,33.00
2023-07-24T12:16:52.906Z,31.89
2023-07-24T12:17:53.015Z,31.87
2023-07-24T12:18:53.020Z,32.28
2023-07-24T12:19:53.073Z,31.99
2023-07-24T12:20:53.158Z,33.33
2023-07-24T12:21:53.215Z,34.48
2023-07-24T12:22:53.265Z,34.28
2023-07-24T12:23:53.316Z,33.32
2023-07-24T12:24:53.475Z,35.80
2023-07-24T12:25:53.435Z,31.82
2023-07-24T12:26:53.500Z,33.85
2023-07-24T12:27:53.545Z,33.44
2023-07-24T12:28:53.610Z,34.73
2023-07-24T12:29:53.674Z,33.41
2023-07-24T12:30:53.878Z,31.66
2023-07-24T12:31:53.805Z,32.33
2023-07-24T12:32:53.913Z,36.38
2023-07-24T12:33:53.914Z,30.96
2023-07-24T12:34:53.970Z,31.93
2023-07-24T12:35:54.048Z,33.28
2023-07-24T12:36:54.103Z,35.47
2023-07-24T12:37:54.174Z,37.53
2023-07-24T12:38:54.207Z,36.02
2023-07-24T12:39:54.274Z,36.46
2023-07-24T12:40:54.348Z,37.38
2023-07-24T12:41:54.400Z,34.64
2023-07-24T12:42:54.463Z,38.76
2023-07-24T12:43:54.536Z,36.79
2023-07-24T12:44:55.709Z,38.73
2023-07-24T12:45:54.628Z,42.44
2023-07-24T12:46:54.654Z,42.95
2023-07-24T12:47:54.648Z,41.99
2023-07-24T12:48:54.601Z,41.76
2023-07-24T12:49:54.564Z,39.02
2023-07-24T12:50:54.564Z,40.64
2023-07-24T12:51:54.604Z,43.46
2023-07-24T12:52:54.549Z,43.45
2023-07-24T12:54:04.446Z,42.30
2023-07-24T12:55:01.797Z,42.92
2023-07-24T12:55:55.549Z,43.16
2023-07-24T12:56:54.586Z,44.43